createdAt,value
2018-07-05T00:00:10.885Z,"    0"
2018-07-05T00:05:06.630Z,"    0"
2018-07-05T00:10:03.504Z,"    0"
2018-07-05T00:15:00.111Z,"    0"
2018-07-05T00:19:55.727Z,"    0"
2018-07-05T00:24:53.092Z,"    0"
2018-07-05T00:29:48.635Z,"    0"
2018-07-05T00:34:44.432Z,"    0"
2018-07-05T00:39:40.335Z,"    0"
2018-07-05T00:44:36.478Z,"    0"
2018-07-05T00:49:32.396Z,"    0"
2018-07-05T00:54:28.343Z,"    0"
2018-07-05T00:59:24.017Z,"    0"
2018-07-05T01:04:19.871Z,"    0"
2018-07-05T01:09:16.635Z,"    0"
2018-07-05T01:14:13.002Z,"    0"
2018-07-05T01:19:08.859Z,"    0"
2018-07-05T01:24:05.469Z,"    0"
2018-07-05T01:29:01.067Z,"    0"
2018-07-05T01:33:56.681Z,"    0"
2018-07-05T01:38:52.483Z,"    0"
2018-07-05T01:43:49.163Z,"    0"
2018-07-05T01:48:45.833Z,"    0"
2018-07-05T01:53:42.471Z,"    0"
2018-07-05T01:58:38.346Z,"    0"
2018-07-05T02:03:34.436Z,"    0"
2018-07-05T02:08:30.342Z,"    0"
2018-07-05T02:13:27.316Z,"    0"
2018-07-05T02:18:24.073Z,"    0"
2018-07-05T02:23:19.694Z,"    0"
2018-07-05T02:28:16.457Z,"    0"
2018-07-05T02:33:12.445Z,"    0"
2018-07-05T02:38:09.330Z,"    4"
2018-07-05T02:43:05.056Z,"    4"
2018-07-05T02:48:00.772Z,"    8"
2018-07-05T02:52:56.866Z,"   16"
2018-07-05T02:57:53.705Z,"   28"
2018-07-05T03:02:49.291Z,"   48"
2018-07-05T03:07:45.997Z,"   76"
2018-07-05T03:12:41.408Z,"  112"
2018-07-05T03:17:37.224Z,"  160"
2018-07-05T03:22:34.282Z,"  220"
2018-07-05T03:27:29.312Z,"  300"
2018-07-05T03:32:25.482Z,"  396"
2018-07-05T03:37:21.360Z,"  512"
2018-07-05T03:42:18.386Z,"  632"
2018-07-05T03:47:15.244Z,"  784"
2018-07-05T03:52:10.993Z,"  936"
2018-07-05T03:57:07.085Z," 1116"
2018-07-05T04:02:02.946Z," 1352"
2018-07-05T04:06:59.904Z," 1556"
2018-07-05T04:11:56.273Z," 1904"
2018-07-05T04:16:53.074Z," 2232"
2018-07-05T04:21:48.829Z," 2648"
2018-07-05T04:26:44.611Z," 3140"
2018-07-05T04:31:41.167Z," 3400"
2018-07-05T04:36:37.316Z," 4504"
2018-07-05T04:41:35.731Z," 4828"
2018-07-05T04:46:33.128Z," 5472"
2018-07-05T04:51:30.620Z," 5708"
2018-07-05T04:56:27.076Z," 6428"
2018-07-05T05:01:23.683Z," 7308"
2018-07-05T05:06:20.243Z," 7088"
2018-07-05T05:11:16.597Z," 7328"
2018-07-05T05:16:12.721Z," 7172"
2018-07-05T05:21:09.463Z," 7960"
2018-07-05T05:26:05.833Z,11252
2018-07-05T05:31:02.444Z,11040
2018-07-05T05:35:58.854Z," 5448"
2018-07-05T05:40:53.931Z," 5044"
2018-07-05T05:45:48.975Z," 6800"
2018-07-05T05:50:45.380Z," 8824"
2018-07-05T05:55:41.427Z," 9484"
2018-07-05T06:00:37.771Z," 9332"
2018-07-05T06:05:33.776Z," 7440"
2018-07-05T06:10:29.336Z," 7300"
2018-07-05T06:15:25.124Z," 7576"
2018-07-05T06:20:20.908Z," 7824"
2018-07-05T06:25:16.516Z," 7948"
2018-07-05T06:30:12.436Z," 8776"
2018-07-05T06:35:09.466Z," 8344"
2018-07-05T06:40:05.691Z," 8748"
2018-07-05T06:45:01.640Z," 9168"
2018-07-05T06:49:57.761Z," 9316"
2018-07-05T06:54:54.698Z," 9804"
2018-07-05T06:59:50.415Z," 9732"
2018-07-05T07:04:47.433Z," 9944"
2018-07-05T07:09:43.493Z,10456
2018-07-05T07:14:39.662Z,10672
2018-07-05T07:19:36.072Z,11100
2018-07-05T07:24:32.362Z,11480
2018-07-05T07:29:28.554Z,11892
2018-07-05T07:34:25.371Z,12076
2018-07-05T07:39:21.664Z,12584
2018-07-05T07:44:17.649Z,11620
2018-07-05T07:49:14.132Z,12140
2018-07-05T07:54:10.844Z,28576
2018-07-05T07:59:09.523Z,30432
2018-07-05T08:04:08.369Z,36640
2018-07-05T08:09:05.935Z,36256
2018-07-05T08:14:03.013Z,35776
2018-07-05T08:19:00.606Z,27584
2018-07-05T08:23:55.685Z,17824
2018-07-05T08:28:51.637Z,27616
2018-07-05T08:33:49.011Z,27680
2018-07-05T08:38:45.562Z,38816
2018-07-05T08:43:42.807Z,37376
2018-07-05T08:48:39.459Z,38656
2018-07-05T08:53:36.973Z,41984
2018-07-05T08:58:33.035Z,55552
2018-07-05T09:03:30.295Z,42688
2018-07-05T09:08:26.864Z,55904
2018-07-05T09:13:23.428Z,53248
2018-07-05T09:18:19.445Z,57120
2018-07-05T09:23:16.554Z,60128
2018-07-05T09:28:13.784Z,59200
2018-07-05T09:33:09.883Z,68800
2018-07-05T09:38:06.109Z,70368
2018-07-05T09:43:02.400Z,78432
2018-07-05T09:47:58.819Z,65504
2018-07-05T09:52:56.016Z,70880
2018-07-05T09:57:52.774Z,67008
2018-07-05T10:02:48.429Z,59424
2018-07-05T10:07:44.849Z,54720
2018-07-05T10:12:41.292Z,57472
2018-07-05T10:17:37.629Z,64000
2018-07-05T10:22:34.242Z,51104
2018-07-05T10:27:30.686Z,52576
2018-07-05T10:32:27.986Z,60576
2018-07-05T10:37:23.585Z,47392
2018-07-05T10:42:19.687Z,47488
2018-07-05T10:47:16.712Z,60384
2018-07-05T10:52:13.018Z,24704
2018-07-05T10:57:08.375Z,46208
2018-07-05T11:02:04.195Z,15536
2018-07-05T11:07:00.911Z,61088
2018-07-05T11:11:58.274Z,60192
2018-07-05T11:16:56.542Z,65280
2018-07-05T11:21:53.584Z,56800
2018-07-05T11:26:50.511Z,69024
2018-07-05T11:31:44.744Z,29472
2018-07-05T11:36:41.528Z,89216
2018-07-05T11:41:38.594Z,67456
2018-07-05T11:46:32.886Z,79392
2018-07-05T11:51:32.944Z,85984
2018-07-05T11:56:29.144Z,84352
2018-07-05T12:01:31.216Z,72128
2018-07-05T12:11:29.042Z,71456
2018-07-05T12:16:25.987Z,69152
2018-07-05T12:21:25.259Z,75360
2018-07-05T12:26:22.699Z,73056
2018-07-05T12:31:18.071Z,70016
2018-07-05T12:36:17.783Z,60704
2018-07-05T12:41:11.557Z,52960
2018-07-05T12:46:10.075Z,53280
2018-07-05T12:51:05.243Z,33760
2018-07-05T12:56:01.623Z,94016
2018-07-05T13:00:57.981Z,104160
2018-07-05T13:05:54.751Z,70784
2018-07-05T13:10:50.636Z,51520
2018-07-05T13:15:51.381Z,54240
2018-07-05T13:20:45.932Z,45088
2018-07-05T13:25:40.578Z,55232
2018-07-05T13:30:37.669Z,69632
2018-07-05T13:35:33.653Z,64256
2018-07-05T13:40:29.755Z,48640
2018-07-05T13:50:26.260Z,31616
2018-07-05T13:55:22.980Z,63616
2018-07-05T14:00:23.711Z,65888
2018-07-05T14:05:18.985Z," 7024"
2018-07-05T14:10:13.800Z," 5932"
2018-07-05T14:15:08.579Z," 5804"
2018-07-05T14:20:03.709Z," 6488"
2018-07-05T14:24:59.117Z," 6196"
2018-07-05T14:29:54.591Z," 5660"
2018-07-05T14:34:50.435Z," 6644"
2018-07-05T14:39:46.229Z," 6036"
2018-07-05T14:44:42.041Z," 6276"
2018-07-05T14:49:38.838Z," 5448"
2018-07-05T14:54:34.295Z," 7236"
2018-07-05T14:59:30.264Z," 7676"
2018-07-05T15:04:26.162Z," 7164"
2018-07-05T15:09:22.369Z," 6896"
2018-07-05T15:14:19.560Z," 5780"
2018-07-05T15:19:15.233Z," 4772"
2018-07-05T15:24:12.083Z," 4232"
2018-07-05T15:29:07.830Z," 5976"
2018-07-05T15:34:03.924Z," 5720"
2018-07-05T15:39:00.081Z," 4984"
2018-07-05T15:43:56.135Z," 4320"
2018-07-05T15:48:52.513Z," 3860"
2018-07-05T15:53:48.341Z," 4772"
2018-07-05T15:58:45.351Z," 4752"
2018-07-05T16:03:41.031Z," 4944"
2018-07-05T16:08:36.932Z," 5172"
2018-07-05T16:13:32.854Z," 4828"
2018-07-05T16:18:28.930Z," 4096"
2018-07-05T16:23:25.258Z," 3500"
2018-07-05T16:28:21.017Z," 3028"
2018-07-05T16:33:17.312Z," 2940"
2018-07-05T16:38:14.198Z," 2544"
2018-07-05T16:43:10.726Z," 2744"
2018-07-05T16:48:06.398Z," 2608"
2018-07-05T16:53:02.569Z," 2768"
2018-07-05T16:57:58.471Z," 2300"
2018-07-05T17:02:54.490Z," 2268"
2018-07-05T17:07:50.375Z," 2188"
2018-07-05T17:12:47.187Z," 2128"
2018-07-05T17:17:42.884Z," 2132"
2018-07-05T17:22:39.004Z," 2076"
2018-07-05T17:27:34.855Z," 1884"
2018-07-05T17:32:31.054Z," 1844"
2018-07-05T17:37:26.884Z," 1784"
2018-07-05T17:42:22.970Z," 1752"
2018-07-05T17:47:18.897Z," 1740"
2018-07-05T17:52:16.195Z," 1700"
2018-07-05T17:57:11.674Z," 1768"
2018-07-05T18:02:08.472Z," 1748"
2018-07-05T18:07:04.292Z," 1736"
2018-07-05T18:12:00.252Z," 1636"
2018-07-05T18:16:57.436Z," 1516"
2018-07-05T18:21:53.350Z," 1400"
2018-07-05T18:26:49.014Z," 1300"
2018-07-05T18:31:45.071Z," 1220"
2018-07-05T18:36:40.945Z," 1160"
2018-07-05T18:41:36.771Z," 1104"
2018-07-05T18:46:32.864Z," 1036"
2018-07-05T18:51:28.511Z,"  980"
2018-07-05T18:56:24.220Z,"  924"
2018-07-05T19:01:20.126Z,"  848"
2018-07-05T19:06:16.947Z,"  776"
2018-07-05T19:11:13.782Z,"  700"
2018-07-05T19:16:09.354Z,"  608"
2018-07-05T19:21:05.163Z,"  520"
2018-07-05T19:26:01.040Z,"  440"
2018-07-05T19:30:56.772Z,"  372"
2018-07-05T19:35:53.593Z,"  300"
2018-07-05T19:40:49.132Z,"  240"
2018-07-05T19:45:45.067Z,"  180"
2018-07-05T19:50:41.865Z,"  128"
2018-07-05T19:55:37.325Z,"   84"
2018-07-05T20:00:33.499Z,"   56"
2018-07-05T20:05:29.440Z,"   36"
2018-07-05T20:10:25.402Z,"   20"
2018-07-05T20:15:21.096Z,"   12"
2018-07-05T20:20:16.945Z,"    8"
2018-07-05T20:25:13.266Z,"    4"
2018-07-05T20:30:09.234Z,"    4"
2018-07-05T20:35:05.158Z,"    0"
2018-07-05T20:40:00.890Z,"    0"
2018-07-05T20:44:56.581Z,"    0"
2018-07-05T20:49:52.294Z,"    0"
2018-07-05T20:54:49.110Z,"    0"
2018-07-05T20:59:44.679Z,"    0"
2018-07-05T21:04:40.253Z,"    0"
2018-07-05T21:09:36.207Z,"    0"
2018-07-05T21:14:32.004Z,"    0"
2018-07-05T21:19:27.951Z,"    0"
2018-07-05T21:24:23.529Z,"    0"
2018-07-05T21:29:19.502Z,"    0"
2018-07-05T21:34:15.317Z,"    0"
2018-07-05T21:39:11.181Z,"    0"
2018-07-05T21:44:07.365Z,"    0"
2018-07-05T21:49:03.562Z,"    0"
2018-07-05T21:53:59.559Z,"    0"
2018-07-05T21:58:55.286Z,"    0"
2018-07-05T22:03:51.241Z,"    0"
2018-07-05T22:08:47.375Z,"    0"
2018-07-05T22:13:43.213Z,"    0"
2018-07-05T22:18:38.945Z,"    0"
2018-07-05T22:23:35.327Z,"    0"
2018-07-05T22:28:30.913Z,"    0"
2018-07-05T22:33:27.044Z,"    0"
2018-07-05T22:38:24.165Z,"    0"
2018-07-05T22:43:19.505Z,"    0"
2018-07-05T22:48:16.844Z,"    0"
2018-07-05T22:53:12.458Z,"    0"
2018-07-05T22:58:08.429Z,"    0"
2018-07-05T23:03:04.020Z,"    0"
2018-07-05T23:08:00.616Z,"    0"
2018-07-05T23:12:56.541Z,"    0"
2018-07-05T23:17:52.173Z,"    0"
2018-07-05T23:22:48.516Z,"    0"
2018-07-05T23:27:44.638Z,"    0"
2018-07-05T23:32:40.413Z,"    0"
2018-07-05T23:37:36.026Z,"    0"
2018-07-05T23:42:31.905Z,"    0"
2018-07-05T23:47:27.679Z,"    0"
2018-07-05T23:52:23.857Z,"    0"
2018-07-05T23:57:19.349Z,"    0"
